We would like to show you a description here but the site won’t allow us.Search America's historic newspaper pages from 1789-1925 or use the U.S. Newspaper Directory to find information about American newspapers published between 1690-present.

einn / snn medical assistance. eos kre t p - at. ils / loc / ndb bcloc / ndb ilsd / locd / ndb ilsd / locd / ndb bclocdme bcloc / ndb ilsd / locd / ndb ils.

New-York tribune. (New York [N.Y.]) 1866-1924, January 06

Search the history of over 305 billion web pages on the Internet.

ETOPS+Diversion Chart - Scribd

Welcome to Virtual Norwegian! The virtual airline that models the 3rd largest low-cost carrier in Europe, Norwegian.

paizo.com - Online Campaigns - PBP[PFS] #5-01 The Glass

Shannon Airport: Limerick. EINN ILS CAT I and II or LOC Rwy 24. TAF EINN 010500Z 0106/0206 18016KT 9999 -RA SCT008 BKN015 TEMPO 0106/0110 4000 BKN008 BECMG.

end flightplan 00003 baw1 g-euna einn-kjfk 01sep2014 (fpl-baw1-is-a318/m-sgprwxyz/sb1. this is ils or loc rwy 31r, amdt 15d. 04 aug 15:27 2014 until perm.Rated 3 out of 5 by HB3GC from Offers weather protection but needs improvement The Einn shell offers good. Thanks lululemon. loc_en_US, sid_Einn.

AD 2 - EINN ILS CAT I and II or LOC Rwy 24 AD 2 - EINN ILS or LLZ Rwy 06 AD 2 - EINN VOR Rwy 24 AD 2 - EINN.